Georgetown, SC

12:16 PM EST on March 02, 2015 (GMT -0500)
Mt. Pleasant Plantation | Change Station
CLOSE
Current Station
Personal Weather Station
Location: Andrews, SC
Elevation: 62 ft
Nearby Weather Stations

Elev 62 ft 33.50 °N, 79.46 °W | Updated 9 minutes ago

Overcast
Overcast
61.2 °F
Feels Like 61.2 °F
N
8.0
Wind Variable Wind from SSE
Gusts 12.0 mph

Today
High -- | Low -- °F
--% Chance of Precip.
Yesterday
High -- | Low -- °F
Precip. -- in
6:44 AM 6:14 PM
Waxing Gibbous, 92% visible
Pressure 30.26 in
Visibility 10.0 miles
Clouds Scattered Clouds 700 ft
Dew Point 56 °F
Humidity 83%
Rainfall 0.00 in
Snow Depth Not available.
UV 6 out of 12
Pollen 8.20 out of 12
Air Quality Not available.
Flu Activity Not available.
METAR KGGE 021715Z AUTO 26008KT 10SM SCT007 16/14 A3026 RMK AO2

More Conditions Fewer Conditions

Pressure 30.26 in
Visibility 10.0 miles
Clouds Scattered Clouds 700 ft
Dew Point 56 °F
Humidity 83%
Rainfall 0.00 in
Snow Depth Not available.
UV 6 out of 12
Pollen 8.20 out of 12
Air Quality Not available.
Flu Activity Not available.
METAR KGGE 021715Z AUTO 26008KT 10SM SCT007 16/14 A3026 RMK AO2

More Conditions Fewer Conditions

10-Day Weather Forecast

Almanac

Astronomy

Mar. 02, 2015 Rise Set
Actual Time
Civil Twilight
Nautical Twilight
Astronomical Twilight
Moon
Length of Visible Light
Length of Day
Tomorrow will be .
, % of the Moon is Illuminated

Today's Extremes

State Highs State Lows

Community

WunderPhotos

Upload Photos

1,801,855 photos uploaded!

WunderBlogs® & News

Nearby

Air Quality

  Air Quality AQ Index Pollutant
Not available.

Snow Depth

Station Depth Elevation

Earthquake Activity

City Distance Mag. Time & Date
Minimum magnitude displayed is 2.5.

Coastal Water Temperatures

Place Temperature

Nearby Weather Stations